DAL1254 KJFK-KBOS
Flight info
| Callsign | DAL1254 |
|---|---|
| Flight time | 0h 39m |
| Altitude | 21000 |
| Route | MERIT ROBUC3 |
| Aircraft | B738/M-SDE2E3FGHIRWXY/LB1 |
Departure
| Time | 2026-05-07 23:30 |
|---|---|
| Airport | John F. Kennedy International Airport (KJFK) |
Arrival
| Time | 2026-05-08 00:09 |
|---|---|
| Airport | Boston Logan International Airport (KBOS) |
| Time | Latitude | Longitude | Altitude | Speed | Heading |
|---|---|---|---|---|---|
| 2026-05-07 23:07 | 40.64102 | -73.78311 | 19 ft | 0 kts | 60° |
| 2026-05-07 23:21 | 40.64100 | -73.78315 | 20 ft | 2 kts | 60° |
| 2026-05-07 23:21 | 40.64092 | -73.78333 | 20 ft | 2 kts | 60° |
| 2026-05-07 23:21 | 40.64084 | -73.78352 | 22 ft | 2 kts | 60° |
| 2026-05-07 23:22 | 40.64076 | -73.78371 | 22 ft | 2 kts | 60° |
| 2026-05-07 23:22 | 40.64073 | -73.78378 | 23 ft | 0 kts | 60° |
| 2026-05-07 23:23 | 40.64066 | -73.78347 | 21 ft | 7 kts | 140° |
| 2026-05-07 23:24 | 40.64001 | -73.78324 | 20 ft | 12 kts | 165° |
| 2026-05-07 23:24 | 40.63905 | -73.78299 | 22 ft | 16 kts | 173° |
| 2026-05-07 23:24 | 40.63794 | -73.78282 | 20 ft | 16 kts | 173° |
| 2026-05-07 23:24 | 40.63688 | -73.78264 | 20 ft | 15 kts | 173° |
| 2026-05-07 23:25 | 40.63608 | -73.78254 | 20 ft | 0 kts | 180° |
| 2026-05-07 23:25 | 40.63607 | -73.78254 | 20 ft | 1 kts | 180° |
| 2026-05-07 23:26 | 40.63584 | -73.78256 | 20 ft | 7 kts | 186° |
| 2026-05-07 23:26 | 40.63522 | -73.78298 | 20 ft | 12 kts | 214° |
| 2026-05-07 23:26 | 40.63456 | -73.78325 | 21 ft | 10 kts | 154° |
| 2026-05-07 23:26 | 40.63416 | -73.78254 | 22 ft | 10 kts | 121° |
| 2026-05-07 23:27 | 40.63350 | -73.78105 | 21 ft | 11 kts | 117° |
| 2026-05-07 23:27 | 40.63326 | -73.78003 | 20 ft | 7 kts | 115° |
| 2026-05-07 23:27 | 40.63296 | -73.77989 | 21 ft | 5 kts | 188° |
| 2026-05-07 23:28 | 40.63292 | -73.77991 | 21 ft | 0 kts | 194° |
| 2026-05-07 23:29 | 40.63239 | -73.78008 | 22 ft | 14 kts | 197° |
| 2026-05-07 23:29 | 40.63208 | -73.78068 | 22 ft | 0 kts | 276° |
| 2026-05-07 23:29 | 40.63229 | -73.78133 | 22 ft | 35 kts | 300° |
| 2026-05-07 23:29 | 40.63487 | -73.78698 | 22 ft | 107 kts | 300° |
| 2026-05-07 23:30 | 40.63969 | -73.79766 | 55 ft | 160 kts | 302° |
| 2026-05-07 23:30 | 40.64536 | -73.81092 | 761 ft | 163 kts | 300° |
| 2026-05-07 23:30 | 40.64842 | -73.82494 | 1576 ft | 165 kts | 271° |
| 2026-05-07 23:30 | 40.64569 | -73.83976 | 1990 ft | 172 kts | 244° |
| 2026-05-07 23:31 | 40.63814 | -73.85243 | 2290 ft | 182 kts | 223° |
| 2026-05-07 23:31 | 40.62760 | -73.86212 | 2683 ft | 183 kts | 214° |
| 2026-05-07 23:31 | 40.61717 | -73.87117 | 3229 ft | 183 kts | 217° |
| 2026-05-07 23:31 | 40.60576 | -73.88123 | 3521 ft | 212 kts | 211° |
| 2026-05-07 23:32 | 40.59099 | -73.88546 | 3870 ft | 230 kts | 175° |
| 2026-05-07 23:32 | 40.57526 | -73.87820 | 4153 ft | 248 kts | 155° |
| 2026-05-07 23:32 | 40.55923 | -73.86843 | 4522 ft | 264 kts | 156° |
| 2026-05-07 23:32 | 40.54200 | -73.85842 | 5008 ft | 276 kts | 160° |
| 2026-05-07 23:33 | 40.52330 | -73.85311 | 5887 ft | 274 kts | 173° |
| 2026-05-07 23:33 | 40.50529 | -73.84505 | 6669 ft | 281 kts | 145° |
| 2026-05-07 23:33 | 40.49284 | -73.82509 | 7340 ft | 290 kts | 112° |
| 2026-05-07 23:33 | 40.48969 | -73.79879 | 7957 ft | 298 kts | 84° |
| 2026-05-07 23:34 | 40.49511 | -73.77246 | 8609 ft | 302 kts | 60° |
| 2026-05-07 23:34 | 40.50778 | -73.75058 | 9262 ft | 302 kts | 36° |
| 2026-05-07 23:34 | 40.52503 | -73.73496 | 9943 ft | 302 kts | 24° |
| 2026-05-07 23:34 | 40.54388 | -73.72180 | 10350 ft | 317 kts | 20° |
| 2026-05-07 23:35 | 40.56440 | -73.70851 | 10507 ft | 340 kts | 20° |
| 2026-05-07 23:35 | 40.58623 | -73.69415 | 10766 ft | 360 kts | 21° |
| 2026-05-07 23:35 | 40.60881 | -73.67871 | 11260 ft | 370 kts | 22° |
| 2026-05-07 23:35 | 40.63183 | -73.66274 | 11854 ft | 378 kts | 22° |
| 2026-05-07 23:36 | 40.65525 | -73.64642 | 12482 ft | 385 kts | 22° |
| 2026-05-07 23:36 | 40.67915 | -73.62978 | 13098 ft | 392 kts | 22° |
| 2026-05-07 23:36 | 40.70357 | -73.61281 | 13716 ft | 400 kts | 21° |
| 2026-05-07 23:36 | 40.72834 | -73.59560 | 14360 ft | 404 kts | 21° |
| 2026-05-07 23:37 | 40.75211 | -73.57602 | 15058 ft | 414 kts | 33° |
| 2026-05-07 23:37 | 40.77342 | -73.54964 | 15750 ft | 424 kts | 45° |
| 2026-05-07 23:37 | 40.79131 | -73.51825 | 16393 ft | 432 kts | 56° |
| 2026-05-07 23:37 | 40.80722 | -73.48429 | 17023 ft | 438 kts | 57° |
| 2026-05-07 23:38 | 40.82294 | -73.44961 | 17636 ft | 444 kts | 58° |
| 2026-05-07 23:38 | 40.83884 | -73.41419 | 18240 ft | 449 kts | 58° |
| 2026-05-07 23:38 | 40.85487 | -73.37862 | 18797 ft | 454 kts | 58° |
| 2026-05-07 23:38 | 40.87139 | -73.34214 | 19003 ft | 469 kts | 58° |
| 2026-05-07 23:39 | 40.88840 | -73.30481 | 19300 ft | 479 kts | 58° |
| 2026-05-07 23:39 | 40.90569 | -73.26700 | 19834 ft | 481 kts | 57° |
| 2026-05-07 23:39 | 40.92308 | -73.22904 | 20422 ft | 483 kts | 57° |
| 2026-05-07 23:39 | 40.94056 | -73.19090 | 20851 ft | 486 kts | 57° |
| 2026-05-07 23:40 | 40.95810 | -73.15264 | 20834 ft | 484 kts | 57° |
| 2026-05-07 23:40 | 40.97553 | -73.11453 | 20848 ft | 484 kts | 57° |
| 2026-05-07 23:40 | 40.99279 | -73.07679 | 20860 ft | 489 kts | 57° |
| 2026-05-07 23:40 | 41.01053 | -73.03793 | 20863 ft | 498 kts | 57° |
| 2026-05-07 23:41 | 41.02852 | -72.99848 | 20860 ft | 502 kts | 58° |
| 2026-05-07 23:41 | 41.04649 | -72.95898 | 20842 ft | 498 kts | 58° |
| 2026-05-07 23:41 | 41.06433 | -72.91972 | 20840 ft | 496 kts | 58° |
| 2026-05-07 23:41 | 41.08208 | -72.88058 | 20843 ft | 495 kts | 58° |
| 2026-05-07 23:42 | 41.09986 | -72.84136 | 20844 ft | 494 kts | 58° |
| 2026-05-07 23:42 | 41.11756 | -72.80225 | 20849 ft | 495 kts | 58° |
| 2026-05-07 23:42 | 41.13530 | -72.76302 | 20850 ft | 496 kts | 58° |
| 2026-05-07 23:42 | 41.15307 | -72.72367 | 20836 ft | 498 kts | 58° |
| 2026-05-07 23:43 | 41.17088 | -72.68418 | 20842 ft | 499 kts | 58° |
| 2026-05-07 23:43 | 41.18851 | -72.64504 | 20837 ft | 499 kts | 58° |
| 2026-05-07 23:43 | 41.20630 | -72.60550 | 20845 ft | 500 kts | 58° |
| 2026-05-07 23:43 | 41.22414 | -72.56577 | 20851 ft | 500 kts | 58° |
| 2026-05-07 23:44 | 41.24196 | -72.52606 | 20854 ft | 500 kts | 58° |
| 2026-05-07 23:44 | 41.25974 | -72.48637 | 20848 ft | 500 kts | 58° |
| 2026-05-07 23:44 | 41.27756 | -72.44653 | 20846 ft | 500 kts | 58° |
| 2026-05-07 23:44 | 41.29532 | -72.40678 | 20808 ft | 499 kts | 58° |
| 2026-05-07 23:45 | 41.31309 | -72.36698 | 20545 ft | 498 kts | 58° |
| 2026-05-07 23:45 | 41.33069 | -72.32749 | 20292 ft | 495 kts | 58° |
| 2026-05-07 23:45 | 41.34820 | -72.28814 | 20051 ft | 493 kts | 58° |
| 2026-05-07 23:45 | 41.36564 | -72.24890 | 19802 ft | 491 kts | 59° |
| 2026-05-07 23:46 | 41.38282 | -72.21020 | 19552 ft | 490 kts | 59° |
| 2026-05-07 23:46 | 41.40013 | -72.17118 | 19313 ft | 488 kts | 59° |
| 2026-05-07 23:46 | 41.41738 | -72.13221 | 19072 ft | 487 kts | 59° |
| 2026-05-07 23:46 | 41.43456 | -72.09336 | 18829 ft | 486 kts | 59° |
| 2026-05-07 23:47 | 41.45169 | -72.05459 | 18596 ft | 485 kts | 59° |
| 2026-05-07 23:47 | 41.46878 | -72.01584 | 18364 ft | 484 kts | 59° |
| 2026-05-07 23:47 | 41.48580 | -71.97720 | 18129 ft | 483 kts | 59° |
| 2026-05-07 23:47 | 41.50277 | -71.93861 | 17869 ft | 482 kts | 59° |
| 2026-05-07 23:48 | 41.51965 | -71.90019 | 17599 ft | 480 kts | 59° |
| 2026-05-07 23:48 | 41.53646 | -71.86187 | 17333 ft | 475 kts | 59° |
| 2026-05-07 23:48 | 41.55305 | -71.82400 | 17064 ft | 470 kts | 59° |
| 2026-05-07 23:48 | 41.56949 | -71.78645 | 16805 ft | 467 kts | 59° |
| 2026-05-07 23:49 | 41.58562 | -71.74955 | 16548 ft | 465 kts | 59° |
| 2026-05-07 23:49 | 41.60190 | -71.71228 | 16293 ft | 463 kts | 59° |
| 2026-05-07 23:49 | 41.61811 | -71.67510 | 16033 ft | 461 kts | 59° |
| 2026-05-07 23:49 | 41.63423 | -71.63808 | 15774 ft | 459 kts | 58° |
| 2026-05-07 23:50 | 41.65030 | -71.60116 | 15527 ft | 456 kts | 58° |
| 2026-05-07 23:50 | 41.66617 | -71.56461 | 15280 ft | 454 kts | 58° |
| 2026-05-07 23:50 | 41.68198 | -71.52818 | 15027 ft | 451 kts | 58° |
| 2026-05-07 23:50 | 41.69766 | -71.49201 | 14786 ft | 448 kts | 58° |
| 2026-05-07 23:51 | 41.71307 | -71.45642 | 14549 ft | 445 kts | 58° |
| 2026-05-07 23:51 | 41.72873 | -71.42018 | 14302 ft | 442 kts | 58° |
| 2026-05-07 23:51 | 41.74398 | -71.38459 | 14062 ft | 440 kts | 58° |
| 2026-05-07 23:51 | 41.75889 | -71.34969 | 13830 ft | 432 kts | 58° |
| 2026-05-07 23:52 | 41.77378 | -71.31476 | 13539 ft | 421 kts | 58° |
| 2026-05-07 23:52 | 41.78802 | -71.28137 | 13096 ft | 414 kts | 58° |
| 2026-05-07 23:52 | 41.80210 | -71.24833 | 12631 ft | 401 kts | 58° |
| 2026-05-07 23:52 | 41.81549 | -71.21684 | 12462 ft | 378 kts | 58° |
| 2026-05-07 23:53 | 41.82818 | -71.18699 | 12290 ft | 359 kts | 58° |
| 2026-05-07 23:53 | 41.84022 | -71.15865 | 12142 ft | 341 kts | 57° |
| 2026-05-07 23:53 | 41.85174 | -71.13152 | 12014 ft | 329 kts | 57° |
| 2026-05-07 23:53 | 41.86302 | -71.10514 | 11832 ft | 325 kts | 57° |
| 2026-05-07 23:54 | 41.87438 | -71.07890 | 11652 ft | 325 kts | 57° |
| 2026-05-07 23:54 | 41.88584 | -71.05249 | 11464 ft | 328 kts | 57° |
| 2026-05-07 23:54 | 41.89720 | -71.02626 | 11280 ft | 330 kts | 57° |
| 2026-05-07 23:54 | 41.90872 | -70.99960 | 11073 ft | 330 kts | 57° |
| 2026-05-07 23:55 | 41.92020 | -70.97298 | 10862 ft | 329 kts | 57° |
| 2026-05-07 23:55 | 41.93165 | -70.94642 | 10667 ft | 328 kts | 57° |
| 2026-05-07 23:55 | 41.94297 | -70.92009 | 10465 ft | 323 kts | 57° |
| 2026-05-07 23:55 | 41.95408 | -70.89422 | 10263 ft | 317 kts | 57° |
| 2026-05-07 23:56 | 41.96501 | -70.86876 | 10051 ft | 311 kts | 57° |
| 2026-05-07 23:56 | 41.97578 | -70.84367 | 9808 ft | 310 kts | 57° |
| 2026-05-07 23:56 | 41.98657 | -70.81854 | 9561 ft | 310 kts | 57° |
| 2026-05-07 23:56 | 41.99733 | -70.79342 | 9292 ft | 309 kts | 57° |
| 2026-05-07 23:57 | 42.00801 | -70.76854 | 9025 ft | 306 kts | 56° |
| 2026-05-07 23:57 | 42.02035 | -70.74565 | 8776 ft | 299 kts | 45° |
| 2026-05-07 23:57 | 42.03434 | -70.72513 | 8514 ft | 295 kts | 43° |
| 2026-05-07 23:57 | 42.04841 | -70.70515 | 8248 ft | 293 kts | 43° |
| 2026-05-07 23:58 | 42.06222 | -70.68512 | 8069 ft | 291 kts | 44° |
| 2026-05-07 23:58 | 42.07595 | -70.66482 | 8026 ft | 294 kts | 45° |
| 2026-05-07 23:58 | 42.08947 | -70.64461 | 8012 ft | 293 kts | 45° |
| 2026-05-07 23:58 | 42.10349 | -70.62492 | 7988 ft | 290 kts | 34° |
| 2026-05-07 23:59 | 42.12123 | -70.61307 | 7855 ft | 285 kts | 9° |
| 2026-05-07 23:59 | 42.14073 | -70.60840 | 7614 ft | 285 kts | 5° |
| 2026-05-07 23:59 | 42.16032 | -70.60443 | 7347 ft | 283 kts | 5° |
| 2026-05-07 23:59 | 42.17964 | -70.60060 | 7092 ft | 278 kts | 3° |
| 2026-05-08 00:00 | 42.19848 | -70.60148 | 6982 ft | 264 kts | 348° |
| 2026-05-08 00:00 | 42.21625 | -70.60565 | 6902 ft | 254 kts | 346° |
| 2026-05-08 00:00 | 42.23324 | -70.60997 | 6806 ft | 242 kts | 346° |
| 2026-05-08 00:00 | 42.24929 | -70.61406 | 6710 ft | 226 kts | 346° |
| 2026-05-08 00:01 | 42.26444 | -70.61793 | 6373 ft | 220 kts | 346° |
| 2026-05-08 00:01 | 42.27948 | -70.62188 | 5840 ft | 222 kts | 346° |
| 2026-05-08 00:01 | 42.29460 | -70.62592 | 5445 ft | 220 kts | 346° |
| 2026-05-08 00:01 | 42.30957 | -70.62993 | 5073 ft | 218 kts | 346° |
| 2026-05-08 00:02 | 42.32440 | -70.63388 | 4672 ft | 217 kts | 346° |
| 2026-05-08 00:02 | 42.33911 | -70.63778 | 4308 ft | 214 kts | 346° |
| 2026-05-08 00:02 | 42.35373 | -70.64165 | 4044 ft | 213 kts | 346° |
| 2026-05-08 00:02 | 42.36846 | -70.64556 | 4012 ft | 218 kts | 346° |
| 2026-05-08 00:03 | 42.38318 | -70.64976 | 3995 ft | 213 kts | 339° |
| 2026-05-08 00:03 | 42.39559 | -70.65975 | 4000 ft | 207 kts | 313° |
| 2026-05-08 00:03 | 42.40293 | -70.67600 | 3987 ft | 205 kts | 288° |
| 2026-05-08 00:03 | 42.40683 | -70.69446 | 3786 ft | 202 kts | 282° |
| 2026-05-08 00:04 | 42.40657 | -70.71303 | 3617 ft | 192 kts | 264° |
| 2026-05-08 00:04 | 42.40494 | -70.73031 | 3517 ft | 179 kts | 264° |
| 2026-05-08 00:04 | 42.40276 | -70.74671 | 3292 ft | 175 kts | 261° |
| 2026-05-08 00:04 | 42.40018 | -70.76235 | 3138 ft | 166 kts | 259° |
| 2026-05-08 00:05 | 42.39750 | -70.77771 | 3051 ft | 168 kts | 259° |
| 2026-05-08 00:05 | 42.39478 | -70.79304 | 2931 ft | 168 kts | 259° |
| 2026-05-08 00:05 | 42.39204 | -70.80841 | 2712 ft | 167 kts | 260° |
| 2026-05-08 00:05 | 42.38937 | -70.82333 | 2495 ft | 159 kts | 259° |
| 2026-05-08 00:06 | 42.38767 | -70.83292 | 2353 ft | 159 kts | 259° |
| 2026-05-08 00:06 | 42.38506 | -70.84755 | 2140 ft | 162 kts | 260° |
| 2026-05-08 00:06 | 42.38241 | -70.86246 | 1932 ft | 163 kts | 260° |
| 2026-05-08 00:06 | 42.37979 | -70.87721 | 1703 ft | 158 kts | 260° |
| 2026-05-08 00:07 | 42.37730 | -70.89117 | 1476 ft | 147 kts | 260° |
| 2026-05-08 00:07 | 42.37505 | -70.90385 | 1320 ft | 132 kts | 260° |
| 2026-05-08 00:07 | 42.37292 | -70.91588 | 1120 ft | 132 kts | 260° |
| 2026-05-08 00:07 | 42.37076 | -70.92808 | 944 ft | 134 kts | 259° |
| 2026-05-08 00:08 | 42.36862 | -70.94016 | 761 ft | 130 kts | 259° |
| 2026-05-08 00:08 | 42.36654 | -70.95195 | 596 ft | 131 kts | 258° |
| 2026-05-08 00:08 | 42.36433 | -70.96405 | 455 ft | 132 kts | 259° |
| 2026-05-08 00:08 | 42.36227 | -70.97567 | 244 ft | 125 kts | 260° |
| 2026-05-08 00:09 | 42.36031 | -70.98717 | 55 ft | 125 kts | 259° |
| 2026-05-08 00:09 | 42.35846 | -70.99787 | 29 ft | 103 kts | 255° |
| 2026-05-08 00:09 | 42.35694 | -71.00620 | 22 ft | 81 kts | 257° |
| 2026-05-08 00:09 | 42.35636 | -71.01031 | 23 ft | 34 kts | 273° |
| 2026-05-08 00:10 | 42.35712 | -71.01245 | 24 ft | 13 kts | 307° |
| 2026-05-08 00:10 | 42.35744 | -71.01323 | 24 ft | 0 kts | 294° |
| 2026-05-08 00:11 | 42.35762 | -71.01378 | 28 ft | 14 kts | 291° |
| 2026-05-08 00:12 | 42.35799 | -71.01524 | 27 ft | 18 kts | 288° |
| 2026-05-08 00:12 | 42.35829 | -71.01687 | 26 ft | 18 kts | 282° |
| 2026-05-08 00:12 | 42.35858 | -71.01844 | 28 ft | 17 kts | 289° |
| 2026-05-08 00:12 | 42.35910 | -71.01983 | 24 ft | 16 kts | 301° |
| 2026-05-08 00:13 | 42.35968 | -71.02112 | 25 ft | 16 kts | 301° |
| 2026-05-08 00:13 | 42.36024 | -71.02236 | 26 ft | 15 kts | 300° |
| 2026-05-08 00:13 | 42.36096 | -71.02329 | 24 ft | 14 kts | 332° |
| 2026-05-08 00:13 | 42.36193 | -71.02348 | 25 ft | 15 kts | 4° |
| 2026-05-08 00:14 | 42.36298 | -71.02338 | 26 ft | 15 kts | 4° |
| 2026-05-08 00:14 | 42.36385 | -71.02345 | 25 ft | 8 kts | 321° |
| 2026-05-08 00:14 | 42.36390 | -71.02408 | 24 ft | 5 kts | 258° |
| 2026-05-08 00:14 | 42.36386 | -71.02440 | 25 ft | 0 kts | 268° |